Fort Mohave, Arizona
Current Conditions -  °F | °C
As of 10:55 AM on Thursday 23 Oct 2014 (Local Time) from KIFP Reporting Station
Clear Clear  
Wind Chill: 77°   Ceiling: Unl
Heat Index: 77°   Visibility: 10mi
Dew Point: 39°   Wind: 3mph
Humidity: 26%   Direction: 330°NNW
Pressure: 30.05"   Gusts: NA
Location:  35.01°N, 114.58°W
Report Text: KIFP 231755Z AUTO 33003KT 10SM CLR 25/04 A3005 RMK AO2 PWINO
Loading
Personal Weather Stations






























Interactive Weather Map
Tropical Storm Tracking
New forecast layout! Learn more

10-Day Weather Forecast

Advertisements
Track Severe Weather on mobile